Time;durP1;ratioP1;P1;durP2;ratioP2;P2;SDS_P1;SDS_P2;PMS_P1;PMS_P2;Temp;Humidity;BMP_temperature;BMP_pressure;BME280_temperature;BME280_humidity;BME280_pressure;Samples;Min_cycle;Max_cycle;Signal;HPM_P1;HPM_P2
2022/08/14 00:01:35;;;;;;;4.85;4.45;;;24.60;99.90;;;;;;5021083;28;20303;-51
2022/08/14 00:04:02;;;;;;;5.50;4.50;;;24.70;99.90;;;;;;5021414;28;20220;-52
2022/08/14 00:06:49;;;;;;;4.72;4.32;;;24.70;99.90;;;;;;5020579;28;20229;-50
2022/08/14 00:09:16;;;;;;;5.50;4.65;;;24.70;99.90;;;;;;5022273;28;20205;-52
2022/08/14 00:11:43;;;;;;;5.85;4.70;;;24.70;99.90;;;;;;5021435;28;20197;-52
2022/08/14 00:14:11;;;;;;;6.03;4.80;;;24.50;99.90;;;;;;5021156;28;20212;-51
2022/08/14 00:16:43;;;;;;;4.82;4.43;;;24.50;99.90;;;;;;5020531;28;20240;-52
2022/08/14 00:19:11;;;;;;;5.53;4.75;;;24.50;99.90;;;;;;5021564;28;20609;-52
2022/08/14 00:21:51;;;;;;;6.80;4.97;;;24.40;99.90;;;;;;5020803;28;20208;-51
2022/08/14 00:24:19;;;;;;;5.57;5.07;;;24.40;99.90;;;;;;5020681;28;20204;-51
2022/08/14 00:26:57;;;;;;;8.00;4.87;;;24.30;99.90;;;;;;5021156;28;20220;-50
2022/08/14 00:29:29;;;;;;;6.40;5.47;;;24.30;99.90;;;;;;5021220;28;20201;-52
2022/08/14 00:32:07;;;;;;;5.27;4.50;;;24.10;99.90;;;;;;5020747;28;20204;-51
2022/08/14 00:34:55;;;;;;;5.57;4.60;;;24.10;99.90;;;;;;5020679;28;20211;-52
2022/08/14 00:37:22;;;;;;;5.13;4.63;;;24.10;99.90;;;;;;5017994;28;20212;-52
2022/08/14 00:39:49;;;;;;;5.67;4.70;;;24.10;99.90;;;;;;5015334;28;20629;-50
2022/08/14 00:42:19;;;;;;;4.60;4.20;;;24.10;99.90;;;;;;5017758;28;20291;-52
2022/08/14 00:45:10;;;;;;;6.60;5.47;;;24.00;99.90;;;;;;5021128;28;20323;-51
2022/08/14 00:47:44;;;;;;;6.13;4.60;;;24.00;99.90;;;;;;5020358;28;20661;-52
2022/08/14 00:50:13;;;;;;;5.28;4.78;;;24.10;99.90;;;;;;5020565;28;20259;-52
2022/08/14 00:52:49;;;;;;;5.05;4.47;;;24.00;99.90;;;;;;5020967;28;20201;-52
2022/08/14 00:55:18;;;;;;;6.88;4.72;;;24.00;99.90;;;;;;5020033;28;20667;-51
2022/08/14 00:58:29;;;;;;;4.97;4.30;;;24.00;99.90;;;;;;5020901;28;20245;-51
2022/08/14 01:00:33;;;;;;;7.07;5.13;;;23.90;99.90;;;;;;5020862;28;20260;-52
2022/08/14 01:03:16;;;;;;;8.15;5.13;;;23.90;99.90;;;;;;5020091;28;20212;-51
2022/08/14 01:05:46;;;;;;;4.88;4.45;;;23.70;99.90;;;;;;5020976;28;20220;-52
2022/08/14 01:08:29;;;;;;;6.32;4.85;;;23.70;99.90;;;;;;5021035;28;20572;-52
2022/08/14 01:11:16;;;;;;;5.50;4.90;;;23.70;99.90;;;;;;5020651;28;20223;-52
2022/08/14 01:13:46;;;;;;;8.80;4.78;;;23.70;99.90;;;;;;5020524;28;20657;-52
2022/08/14 01:16:23;;;;;;;5.32;4.72;;;23.70;99.90;;;;;;5020003;28;20258;-52
2022/08/14 01:21:40;;;;;;;7.30;5.07;;;23.60;99.90;;;;;;5018690;28;20247;-51
2022/08/14 01:24:22;;;;;;;5.60;5.00;;;23.50;99.90;;;;;;5019679;28;20223;-51
2022/08/14 01:27:00;;;;;;;5.05;4.55;;;23.50;99.90;;;;;;5020117;28;20217;-50
2022/08/14 01:29:36;;;;;;;5.75;4.93;;;23.50;99.90;;;;;;5017935;28;20577;-51
2022/08/14 01:32:23;;;;;;;5.53;4.80;;;23.40;99.90;;;;;;5019881;28;20209;-51
2022/08/14 01:34:56;;;;;;;5.50;5.03;;;23.40;99.90;;;;;;5019899;28;20246;-50
2022/08/14 01:37:45;;;;;;;6.20;5.00;;;23.40;99.90;;;;;;5018779;28;20291;-52
2022/08/14 01:40:23;;;;;;;6.65;5.18;;;23.30;99.90;;;;;;5020563;28;20296;-50
2022/08/14 01:42:59;;;;;;;5.85;4.70;;;23.30;99.90;;;;;;5019875;28;20211;-51
2022/08/14 01:45:28;;;;;;;6.97;4.72;;;23.30;99.90;;;;;;5019411;28;20320;-51
2022/08/14 01:48:07;;;;;;;5.65;5.10;;;23.30;99.90;;;;;;5019411;28;20611;-53
2022/08/14 01:50:40;;;;;;;5.78;5.28;;;23.30;99.90;;;;;;5019535;28;20278;-53
2022/08/14 01:53:08;;;;;;;5.70;5.20;;;23.30;99.90;;;;;;5013930;28;20201;-53
2022/08/14 01:55:37;;;;;;;6.15;5.28;;;23.30;99.90;;;;;;5018668;28;20308;-51
2022/08/14 01:58:10;;;;;;;10.60;5.63;;;23.30;99.90;;;;;;5019263;28;20272;-50
2022/08/14 02:00:53;;;;;;;5.83;5.23;;;23.20;99.90;;;;;;5020164;28;20268;-49
2022/08/14 02:03:29;;;;;;;8.27;5.50;;;23.20;99.90;;;;;;5019663;28;20644;-51
2022/08/14 02:06:01;;;;;;;9.20;5.50;;;23.10;99.90;;;;;;5019668;28;20247;-50
2022/08/14 02:08:48;;;;;;;6.50;5.40;;;23.10;99.90;;;;;;5019736;28;20212;-51
2022/08/14 02:11:22;;;;;;;8.80;5.90;;;23.10;99.90;;;;;;5018951;28;20294;-51
2022/08/14 02:13:58;;;;;;;6.63;6.03;;;23.00;99.90;;;;;;5019990;28;20195;-51
2022/08/14 02:16:39;;;;;;;8.10;5.80;;;22.90;99.90;;;;;;5018498;28;20221;-52
2022/08/14 02:19:10;;;;;;;6.27;5.77;;;22.90;99.90;;;;;;5013727;28;20207;-49
2022/08/14 02:21:38;;;;;;;8.67;6.17;;;22.80;99.90;;;;;;5019277;28;20231;-51
2022/08/14 02:24:10;;;;;;;6.77;6.17;;;22.80;99.90;;;;;;5019805;28;20251;-50
2022/08/14 02:26:59;;;;;;;6.87;6.10;;;22.70;99.90;;;;;;5020531;28;20231;-50
2022/08/14 02:29:46;;;;;;;11.00;6.23;;;22.70;99.90;;;;;;5019100;28;20218;-52
2022/08/14 02:32:27;;;;;;;7.50;6.13;;;22.70;99.90;;;;;;5018845;28;20299;-51
2022/08/14 02:35:12;;;;;;;10.87;7.13;;;22.70;99.90;;;;;;5019645;28;20207;-52
2022/08/14 02:37:39;;;;;;;8.07;6.20;;;22.50;99.90;;;;;;5018020;28;20211;-52
2022/08/14 02:40:17;;;;;;;7.13;6.20;;;22.50;99.90;;;;;;5019611;28;20594;-50
2022/08/14 02:42:44;;;;;;;6.80;6.10;;;22.40;99.90;;;;;;5019544;28;20203;-49
2022/08/14 02:45:30;;;;;;;8.23;7.43;;;22.40;99.90;;;;;;5018906;28;20562;-50
2022/08/14 02:48:05;;;;;;;7.60;6.50;;;22.40;99.90;;;;;;5022449;28;20205;-49
2022/08/14 02:50:52;;;;;;;7.53;6.83;;;22.30;99.90;;;;;;5023144;28;20298;-52
2022/08/14 02:53:19;;;;;;;9.67;6.87;;;22.40;99.90;;;;;;5019336;28;20295;-50
2022/08/14 02:55:46;;;;;;;7.20;6.60;;;22.40;99.90;;;;;;5022692;28;20220;-52
2022/08/14 02:58:14;;;;;;;9.03;6.87;;;22.30;99.90;;;;;;5019873;28;20236;-51
2022/08/14 03:00:57;;;;;;;7.37;6.77;;;22.30;99.90;;;;;;5023478;28;20320;-50
2022/08/14 03:03:25;;;;;;;7.87;7.03;;;22.30;99.90;;;;;;5022025;28;20204;-51
2022/08/14 03:05:52;;;;;;;7.53;6.83;;;22.20;99.90;;;;;;5022909;28;20747;-51
2022/08/14 03:08:21;;;;;;;7.60;6.83;;;22.20;99.90;;;;;;5022571;28;20213;-51
2022/08/14 03:10:48;;;;;;;7.83;7.00;;;22.20;99.90;;;;;;5023243;28;20201;-50
2022/08/14 03:13:18;;;;;;;8.47;7.70;;;22.20;99.90;;;;;;5023039;28;20195;-50
2022/08/14 03:15:52;;;;;;;7.37;6.63;;;22.10;99.90;;;;;;5022740;28;20721;-51
2022/08/14 03:18:25;;;;;;;7.57;6.90;;;22.10;99.90;;;;;;5022675;28;20564;-51
2022/08/14 03:21:06;;;;;;;9.83;7.37;;;22.10;99.90;;;;;;5022321;28;20269;-50
2022/08/14 03:23:35;;;;;;;9.20;8.30;;;22.10;99.90;;;;;;5023030;28;20688;-51
2022/08/14 03:26:08;;;;;;;7.47;6.77;;;22.00;99.90;;;;;;5022105;28;20230;-51
2022/08/14 03:28:48;;;;;;;8.23;7.13;;;22.20;99.90;;;;;;5022577;28;20213;-50
2022/08/14 03:31:22;;;;;;;8.57;7.85;;;22.10;99.90;;;;;;5021554;28;20212;-51
2022/08/14 03:33:54;;;;;;;8.40;7.60;;;22.00;99.90;;;;;;5022497;28;20204;-51
2022/08/14 03:36:21;;;;;;;9.00;7.43;;;21.90;99.90;;;;;;5021376;28;20250;-51
2022/08/14 03:39:10;;;;;;;8.43;7.63;;;21.90;99.90;;;;;;5022548;28;20687;-50
2022/08/14 03:41:55;;;;;;;10.17;7.60;;;21.90;99.90;;;;;;5022357;28;20212;-51
2022/08/14 03:44:25;;;;;;;8.43;7.55;;;22.00;99.90;;;;;;5021690;28;20303;-51
2022/08/14 03:47:12;;;;;;;9.40;7.53;;;21.80;99.90;;;;;;5021271;28;20319;-52
2022/08/14 03:49:44;;;;;;;9.87;7.70;;;21.80;99.90;;;;;;5017390;28;20292;-51
2022/08/14 03:52:16;;;;;;;8.53;7.57;;;21.80;99.90;;;;;;5021471;28;20658;-51
2022/08/14 03:55:08;;;;;;;9.60;7.67;;;21.70;99.90;;;;;;5020745;28;20236;-52
2022/08/14 03:57:35;;;;;;;8.90;7.93;;;21.80;99.90;;;;;;5020555;28;20216;-51
2022/08/14 04:00:10;;;;;;;9.63;7.83;;;21.60;99.90;;;;;;5021826;28;20296;-50
2022/08/14 04:02:57;;;;;;;9.57;7.78;;;21.70;99.90;;;;;;5021985;28;20234;-50
2022/08/14 04:05:24;;;;;;;8.70;7.83;;;21.70;99.90;;;;;;5021090;28;20241;-51
2022/08/14 04:07:51;;;;;;;8.60;7.80;;;21.70;99.90;;;;;;5020950;28;20263;-50
2022/08/14 04:10:38;;;;;;;8.53;7.40;;;21.60;99.90;;;;;;5021708;28;20303;-50
2022/08/14 04:13:05;;;;;;;7.90;7.20;;;21.60;99.90;;;;;;5019183;28;20201;-50
2022/08/14 04:15:33;;;;;;;8.23;7.50;;;21.70;99.90;;;;;;5016641;28;20205;-52
2022/08/14 04:18:20;;;;;;;9.30;7.83;;;21.60;99.90;;;;;;5020421;28;20219;-51
2022/08/14 04:20:48;;;;;;;10.53;8.17;;;21.60;99.90;;;;;;5017649;28;20680;-50
2022/08/14 04:23:23;;;;;;;8.93;8.03;;;21.60;99.90;;;;;;5021227;28;20254;-52
2022/08/14 04:26:00;;;;;;;8.40;7.60;;;21.60;99.90;;;;;;5021610;28;20200;-51
2022/08/14 04:28:27;;;;;;;11.13;7.60;;;21.50;99.90;;;;;;5021576;28;20208;-51
2022/08/14 04:31:18;;;;;;;11.43;7.63;;;21.50;99.90;;;;;;5020143;28;20219;-51
2022/08/14 04:34:06;;;;;;;9.43;7.83;;;21.50;99.90;;;;;;5020790;28;20320;-52
2022/08/14 04:43:34;;;;;;;14.60;9.30;;;21.50;99.90;;;;;;5015834;28;20213;-51
2022/08/14 04:44:58;;;;;;;8.73;7.80;;;21.30;99.90;;;;;;5020289;28;20566;-51
2022/08/14 04:50:19;;;;;;;8.73;7.67;;;21.40;99.90;;;;;;5021102;28;20213;-50
2022/08/14 04:53:03;;;;;;;8.37;7.57;;;21.40;99.90;;;;;;5020419;28;20199;-50
2022/08/14 04:55:30;;;;;;;8.60;7.80;;;21.30;99.90;;;;;;5019158;28;20770;-50
2022/08/14 04:57:58;;;;;;;8.40;7.60;;;21.40;99.90;;;;;;5015951;28;20248;-49
2022/08/14 05:00:26;;;;;;;8.80;7.90;;;21.20;99.90;;;;;;5019814;28;20255;-51
2022/08/14 05:02:55;;;;;;;8.13;7.37;;;21.30;99.90;;;;;;5019799;28;20239;-49
2022/08/14 05:05:23;;;;;;;8.87;7.97;;;21.30;99.90;;;;;;5018421;28;21195;-52
2022/08/14 05:07:51;;;;;;;9.30;8.33;;;21.30;99.90;;;;;;5020306;28;20673;-51
2022/08/14 05:10:27;;;;;;;9.43;8.37;;;21.20;99.90;;;;;;5019415;28;20192;-51
2022/08/14 05:12:58;;;;;;;9.30;8.30;;;21.10;99.90;;;;;;5020461;28;20205;-50
2022/08/14 05:15:41;;;;;;;9.50;8.20;;;21.10;99.90;;;;;;5021249;28;20640;-50
2022/08/14 05:18:13;;;;;;;9.30;8.23;;;21.20;99.90;;;;;;5018639;28;20220;-50
2022/08/14 05:21:05;;;;;;;10.73;7.70;;;21.30;99.90;;;;;;5019810;28;20217;-51
2022/08/14 05:23:53;;;;;;;9.67;8.63;;;21.30;99.90;;;;;;5020649;28;20212;-50
2022/08/14 05:26:21;;;;;;;9.37;8.47;;;21.30;99.90;;;;;;5019275;28;20340;-51
2022/08/14 05:28:48;;;;;;;11.83;8.00;;;21.30;99.90;;;;;;5022299;28;20645;-52
2022/08/14 05:31:18;;;;;;;9.50;8.60;;;21.30;99.90;;;;;;5019112;28;20611;-51
2022/08/14 05:33:48;;;;;;;9.23;8.40;;;21.40;99.90;;;;;;5021045;28;20284;-50
2022/08/14 05:36:24;;;;;;;10.97;9.00;;;21.40;99.90;;;;;;5019571;28;20346;-51
2022/08/14 05:38:52;;;;;;;9.13;7.97;;;21.40;99.90;;;;;;5018478;28;20243;-50
2022/08/14 05:41:21;;;;;;;10.30;9.30;;;21.50;99.90;;;;;;5020440;28;20254;-52
2022/08/14 05:43:47;;;;;;;12.73;8.53;;;21.60;99.90;;;;;;5017692;28;20766;-51
2022/08/14 05:46:17;;;;;;;10.30;8.90;;;21.60;99.90;;;;;;5012898;28;20219;-51
2022/08/14 05:48:53;;;;;;;9.50;8.60;;;21.60;99.90;;;;;;5019843;28;20205;-52
2022/08/14 05:51:21;;;;;;;10.83;8.60;;;21.60;99.90;;;;;;5019907;28;20266;-49
2022/08/14 05:53:49;;;;;;;9.83;8.57;;;21.70;99.90;;;;;;5016389;28;20232;-49
2022/08/14 05:56:35;;;;;;;10.10;9.17;;;21.60;99.90;;;;;;5019593;28;20204;-51
2022/08/14 05:59:04;;;;;;;11.50;10.40;;;21.70;99.90;;;;;;5018979;28;20648;-51
2022/08/14 06:01:31;;;;;;;11.33;9.33;;;21.70;99.90;;;;;;5007460;28;20286;-51
2022/08/14 06:03:59;;;;;;;10.63;9.57;;;21.70;99.90;;;;;;5018683;28;20248;-52
2022/08/14 06:06:26;;;;;;;11.70;10.43;;;21.80;99.90;;;;;;5019449;28;20698;-50
2022/08/14 06:08:52;;;;;;;11.60;10.40;;;21.80;99.90;;;;;;5035529;28;20251;-50
2022/08/14 06:11:19;;;;;;;12.43;11.13;;;21.80;99.90;;;;;;5019119;28;20200;-50
2022/08/14 06:13:57;;;;;;;13.70;11.47;;;21.70;99.90;;;;;;5020120;28;20271;-50
2022/08/14 06:16:24;;;;;;;11.63;10.53;;;21.70;99.90;;;;;;5019095;28;20209;-50
2022/08/14 06:18:51;;;;;;;13.80;11.90;;;21.70;99.90;;;;;;5020168;28;20255;-50
2022/08/14 06:21:21;;;;;;;11.80;10.77;;;21.70;99.90;;;;;;5018881;28;20208;-50
2022/08/14 06:23:48;;;;;;;13.53;12.13;;;21.90;99.90;;;;;;5019932;28;20204;-50
2022/08/14 06:26:15;;;;;;;12.20;11.00;;;21.90;99.90;;;;;;5019389;28;20283;-50
2022/08/14 06:28:48;;;;;;;14.77;12.23;;;21.70;99.90;;;;;;5019571;28;20205;-52
2022/08/14 06:31:17;;;;;;;12.83;11.60;;;21.90;99.90;;;;;;5018734;28;20212;-52
2022/08/14 06:33:46;;;;;;;13.87;11.87;;;22.00;99.90;;;;;;5015541;28;20214;-50
2022/08/14 06:36:33;;;;;;;14.53;12.57;;;22.00;99.90;;;;;;5019772;28;20215;-50
2022/08/14 06:39:01;;;;;;;13.67;12.37;;;21.90;99.90;;;;;;5019764;28;20248;-51
2022/08/14 06:41:27;;;;;;;13.90;12.60;;;22.10;99.90;;;;;;5019343;28;20236;-51
2022/08/14 06:44:15;;;;;;;14.90;13.30;;;22.20;99.90;;;;;;5018971;28;20200;-51
2022/08/14 06:46:41;;;;;;;13.77;12.37;;;22.40;99.90;;;;;;5014786;28;20253;-52
2022/08/14 06:49:15;;;;;;;13.40;12.10;;;22.50;99.90;;;;;;5019169;28;20196;-51
2022/08/14 06:51:45;;;;;;;14.80;13.23;;;22.80;99.90;;;;;;5015035;28;20201;-51
2022/08/14 06:54:15;;;;;;;14.40;12.93;;;22.80;99.90;;;;;;5018406;28;20237;-52
2022/08/14 06:56:42;;;;;;;14.77;12.70;;;23.00;99.90;;;;;;5015546;28;20288;-50
2022/08/14 06:59:20;;;;;;;13.30;11.90;;;23.10;99.90;;;;;;5019210;28;20682;-51
2022/08/14 07:07:40;;;;;;;13.43;11.32;;;23.70;99.90;;;;;;5018969;28;20239;-51
2022/08/14 07:10:09;;;;;;;13.82;12.02;;;24.10;99.90;;;;;;5019368;28;20200;-49
2022/08/14 07:12:44;;;;;;;13.63;12.32;;;24.40;99.90;;;;;;5020311;28;20292;-51
2022/08/14 07:15:28;;;;;;;12.38;11.13;;;24.40;99.90;;;;;;5018774;28;20233;-52
2022/08/14 07:17:59;;;;;;;13.25;11.63;;;24.50;99.90;;;;;;5018011;28;20208;-51
2022/08/14 07:20:26;;;;;;;13.70;11.70;;;24.70;99.90;;;;;;5014019;28;20727;-52
2022/08/14 07:23:02;;;;;;;12.93;10.80;;;24.70;99.90;;;;;;5018196;28;20209;-52
2022/08/14 07:25:35;;;;;;;12.77;11.57;;;24.50;99.90;;;;;;5019257;28;20291;-52
2022/08/14 07:28:16;;;;;;;12.20;10.50;;;24.90;99.90;;;;;;5017958;28;20272;-52
2022/08/14 07:30:47;;;;;;;11.20;10.13;;;25.00;99.90;;;;;;5019618;28;20327;-52
2022/08/14 07:33:18;;;;;;;10.48;9.50;;;25.10;99.90;;;;;;5021511;28;20208;-51
2022/08/14 07:35:56;;;;;;;12.15;9.43;;;25.00;99.90;;;;;;5022499;28;20695;-50
2022/08/14 07:38:26;;;;;;;12.48;8.57;;;25.10;99.90;;;;;;5023271;28;20224;-52
2022/08/14 07:40:59;;;;;;;10.38;9.27;;;25.30;99.90;;;;;;5021802;28;20200;-51
2022/08/14 07:43:26;;;;;;;9.98;9.07;;;25.60;99.90;;;;;;5021695;28;20567;-52
2022/08/14 07:45:54;;;;;;;9.32;8.43;;;25.70;99.90;;;;;;5019928;28;20217;-52
2022/08/14 07:48:21;;;;;;;10.50;9.57;;;25.80;99.90;;;;;;5017438;28;20303;-52
2022/08/14 07:50:51;;;;;;;11.32;8.82;;;25.90;99.90;;;;;;5021990;28;20216;-50
2022/08/14 07:53:28;;;;;;;10.85;8.32;;;25.90;99.90;;;;;;5021621;28;20229;-50
2022/08/14 07:55:56;;;;;;;9.13;8.32;;;26.10;99.90;;;;;;5022012;28;20231;-52
2022/08/14 07:58:43;;;;;;;9.93;8.80;;;26.30;99.90;;;;;;5021525;28;20244;-51
2022/08/14 08:01:18;;;;;;;9.80;8.32;;;26.40;99.90;;;;;;5021685;28;20582;-52
2022/08/14 08:03:46;;;;;;;8.90;8.02;;;26.30;99.90;;;;;;5020307;28;20210;-50
2022/08/14 08:06:25;;;;;;;10.40;9.45;;;26.60;99.90;;;;;;5021502;28;20441;-51
2022/08/14 08:08:57;;;;;;;10.40;8.90;;;26.40;99.90;;;;;;5021906;28;20618;-50
2022/08/14 08:11:34;;;;;;;9.05;8.18;;;26.30;99.90;;;;;;5021408;28;20197;-52
2022/08/14 08:14:06;;;;;;;10.95;8.85;;;26.60;99.90;;;;;;5021915;28;20208;-51
2022/08/14 08:16:37;;;;;;;9.88;8.30;;;26.80;99.90;;;;;;5020555;28;20204;-51
2022/08/14 08:19:07;;;;;;;9.40;7.18;;;26.60;99.90;;;;;;5015784;28;20217;-50
2022/08/14 08:21:38;;;;;;;8.60;7.40;;;26.70;99.90;;;;;;5020769;28;20664;-51
2022/08/14 08:24:10;;;;;;;9.00;8.10;;;27.00;99.90;;;;;;5021905;28;20213;-52
2022/08/14 08:26:38;;;;;;;9.73;8.07;;;27.10;99.90;;;;;;5020671;28;20668;-52
2022/08/14 08:29:05;;;;;;;8.20;7.40;;;27.40;99.90;;;;;;5021514;28;20248;-51
2022/08/14 08:31:35;;;;;;;8.00;7.28;;;27.70;99.90;;;;;;5020639;28;20267;-52
2022/08/14 08:34:05;;;;;;;9.32;8.43;;;27.80;99.90;;;;;;5046896;28;20220;-52
2022/08/14 08:36:40;;;;;;;8.77;7.40;;;27.80;99.90;;;;;;5014850;28;20204;-53
2022/08/14 08:39:07;;;;;;;9.32;8.43;;;28.10;99.90;;;;;;5021023;28;20204;-52
2022/08/14 08:41:47;;;;;;;9.23;7.45;;;27.90;99.90;;;;;;5020550;28;20216;-51
2022/08/14 08:44:16;;;;;;;7.90;7.10;;;27.90;99.90;;;;;;5018796;28;20221;-52
2022/08/14 08:47:04;;;;;;;7.40;6.70;;;28.00;99.90;;;;;;5021216;28;20295;-53
2022/08/14 08:49:41;;;;;;;8.27;7.47;;;28.00;99.90;;;;;;5019472;28;20201;-52
2022/08/14 08:52:15;;;;;;;10.73;6.65;;;28.10;99.90;;;;;;5019846;28;20292;-52
2022/08/14 08:54:56;;;;;;;8.93;7.90;;;28.50;99.90;;;;;;5020725;28;20224;-54
2022/08/14 08:57:24;;;;;;;11.20;7.05;;;28.20;99.90;;;;;;5019073;28;20213;-51
2022/08/14 08:59:52;;;;;;;6.97;6.38;;;28.30;99.90;;;;;;5019352;28;20209;-53
2022/08/14 09:02:24;;;;;;;6.38;5.85;;;28.70;99.90;;;;;;5021101;28;20209;-52
2022/08/14 09:05:01;;;;;;;7.20;6.03;;;29.00;99.90;;;;;;5020754;28;20232;-54
2022/08/14 09:07:28;;;;;;;6.88;6.22;;;29.40;99.90;;;;;;5020652;28;20223;-53
2022/08/14 09:09:57;;;;;;;8.32;6.22;;;29.70;99.90;;;;;;5020809;28;20215;-54
2022/08/14 09:12:30;;;;;;;7.80;6.03;;;29.90;99.90;;;;;;5015488;28;20197;-53
2022/08/14 09:15:00;;;;;;;6.72;5.97;;;29.60;99.90;;;;;;5020992;28;20655;-52
2022/08/14 09:17:27;;;;;;;6.47;5.88;;;29.60;99.90;;;;;;5019215;28;20204;-52
2022/08/14 09:19:55;;;;;;;11.25;6.30;;;29.70;99.90;;;;;;5018087;28;20584;-52
2022/08/14 09:22:27;;;;;;;6.75;6.05;;;29.80;99.90;;;;;;5019759;28;20300;-54
2022/08/14 09:25:03;;;;;;;7.18;6.47;;;29.60;99.90;;;;;;5019591;28;20215;-53
2022/08/14 09:27:33;;;;;;;8.93;6.18;;;30.10;99.90;;;;;;5020171;28;20231;-52
2022/08/14 09:30:01;;;;;;;7.63;6.30;;;29.80;99.90;;;;;;5019765;28;20247;-53
2022/08/14 09:33:10;;;;;;;6.88;6.18;;;30.10;99.90;;;;;;5019756;28;20687;-52
2022/08/14 09:36:06;;;;;;;7.88;6.38;;;30.40;99.90;;;;;;5019934;28;20204;-53
2022/08/14 09:38:53;;;;;;;5.88;5.30;;;30.10;99.90;;;;;;5019173;28;20500;-55
2022/08/14 09:41:41;;;;;;;6.65;5.15;;;31.20;99.90;;;;;;5013747;28;21141;-55
2022/08/14 09:44:58;;;;;;;5.57;5.05;;;31.60;99.90;;;;;;5020690;28;20220;-54
2022/08/14 09:47:48;;;;;;;6.78;5.65;;;32.40;99.90;;;;;;5019490;28;20213;-55
2022/08/14 09:50:52;;;;;;;9.38;5.30;;;32.30;99.90;;;;;;5019328;28;20218;-54
2022/08/14 09:53:40;;;;;;;7.78;5.40;;;31.50;99.90;;;;;;5017457;28;20376;-54
2022/08/14 09:56:27;;;;;;;6.22;5.63;;;31.10;99.90;;;;;;5019020;28;20466;-54
2022/08/14 09:59:08;;;;;;;6.00;5.50;;;31.50;99.90;;;;;;5020013;28;20336;-54
2022/08/14 10:01:36;;;;;;;7.65;5.30;;;31.70;99.90;;;;;;5015524;28;20204;-53
2022/08/14 10:04:06;;;;;;;6.03;4.82;;;31.40;99.90;;;;;;5013089;28;20649;-54
2022/08/14 10:06:53;;;;;;;6.05;5.53;;;31.60;99.90;;;;;;5019857;28;20598;-54
2022/08/14 10:09:20;;;;;;;7.68;6.28;;;31.70;99.90;;;;;;5019112;28;20256;-53
2022/08/14 10:11:56;;;;;;;7.38;6.68;;;31.60;99.90;;;;;;5018921;28;20198;-56
2022/08/14 10:14:29;;;;;;;6.82;6.22;;;31.00;99.90;;;;;;5020155;28;20201;-55
2022/08/14 10:17:04;;;;;;;6.68;5.07;;;31.30;99.90;;;;;;5018758;28;20247;-54
2022/08/14 10:19:34;;;;;;;6.90;5.95;;;31.20;99.90;;;;;;5016870;28;20299;-53
2022/08/14 10:22:09;;;;;;;6.57;5.47;;;31.00;99.90;;;;;;5013508;28;20253;-54
2022/08/14 10:24:56;;;;;;;7.35;5.43;;;31.00;99.90;;;;;;5018724;28;20302;-54
2022/08/14 10:27:26;;;;;;;7.50;6.40;;;30.80;99.90;;;;;;5018887;28;20249;-54
2022/08/14 10:29:59;;;;;;;5.70;5.20;;;30.30;99.90;;;;;;5018788;28;20251;-52
2022/08/14 10:32:27;;;;;;;7.43;5.32;;;30.20;99.90;;;;;;5018249;28;20239;-54
2022/08/14 10:35:09;;;;;;;6.45;5.60;;;30.00;99.90;;;;;;5018905;28;20205;-53
2022/08/14 10:37:49;;;;;;;7.82;5.20;;;30.30;99.90;;;;;;5018670;28;20213;-54
2022/08/14 10:40:27;;;;;;;5.93;5.43;;;30.80;99.90;;;;;;5013746;28;20205;-54
2022/08/14 10:43:26;;;;;;;6.68;4.88;;;30.70;99.90;;;;;;5018660;28;20562;-54
2022/08/14 10:46:00;;;;;;;6.95;4.90;;;30.90;99.90;;;;;;5018222;28;20246;-54
2022/08/14 10:49:02;;;;;;;7.53;6.35;;;30.80;99.90;;;;;;5018893;28;20237;-54
2022/08/14 10:51:33;;;;;;;5.32;4.53;;;31.00;99.90;;;;;;5020119;28;20234;-54
2022/08/14 10:54:09;;;;;;;5.50;4.80;;;30.70;99.90;;;;;;5019148;28;20225;-54
2022/08/14 10:56:58;;;;;;;6.70;4.30;;;30.80;99.90;;;;;;5019147;28;20769;-54
2022/08/14 10:59:25;;;;;;;5.78;4.20;;;30.50;99.90;;;;;;5017966;28;20272;-53
2022/08/14 11:02:00;;;;;;;8.27;4.47;;;30.80;99.90;;;;;;5018901;28;20295;-56
2022/08/14 11:04:27;;;;;;;4.50;4.10;;;30.80;99.90;;;;;;5019113;28;20676;-55
2022/08/14 11:06:56;;;;;;;4.57;4.18;;;30.90;99.90;;;;;;5018935;28;20566;-54
2022/08/14 11:09:23;;;;;;;6.55;4.65;;;30.90;99.90;;;;;;5023518;28;20222;-53
2022/08/14 11:11:56;;;;;;;4.65;4.25;;;31.30;99.90;;;;;;5023330;28;20216;-54
2022/08/14 11:14:54;;;;;;;4.65;4.25;;;31.20;99.90;;;;;;5022798;28;20200;-53
2022/08/14 11:17:30;;;;;;;6.53;4.00;;;31.70;99.90;;;;;;5021359;28;20235;-54
2022/08/14 11:20:00;;;;;;;4.25;3.88;;;32.10;99.90;;;;;;5022568;28;20212;-54
2022/08/14 11:22:29;;;;;;;5.70;3.65;;;32.20;99.90;;;;;;5022057;28;20197;-54
2022/08/14 11:25:18;;;;;;;6.70;4.13;;;32.80;99.90;;;;;;5022521;28;20299;-54
2022/08/14 11:27:46;;;;;;;3.70;3.40;;;32.50;99.90;;;;;;5022138;28;20262;-54
2022/08/14 11:30:27;;;;;;;4.70;3.28;;;32.10;99.90;;;;;;5022203;28;20205;-56
2022/08/14 11:33:14;;;;;;;2.90;2.70;;;33.00;99.90;;;;;;5020576;28;20209;-54
2022/08/14 11:35:47;;;;;;;5.07;3.17;;;33.60;99.90;;;;;;5021521;28;20197;-54
2022/08/14 11:38:16;;;;;;;5.10;3.40;;;34.20;99.90;;;;;;5023972;28;20201;-54
2022/08/14 11:40:45;;;;;;;4.45;4.03;;;35.70;99.90;;;;;;5020101;28;20217;-55
2022/08/14 11:43:15;;;;;;;4.45;4.00;;;35.10;99.90;;;;;;5021904;28;20239;-55
2022/08/14 11:45:47;;;;;;;3.85;3.53;;;34.60;99.90;;;;;;5021530;28;20255;-55
2022/08/14 11:48:19;;;;;;;4.75;3.60;;;34.30;99.90;;;;;;5021638;28;20248;-54
2022/08/14 11:51:22;;;;;;;3.88;3.20;;;34.60;99.90;;;;;;5021407;28;20209;-55
2022/08/14 11:53:56;;;;;;;4.30;2.75;;;34.70;99.90;;;;;;5021389;28;20679;-55
2022/08/14 11:56:24;;;;;;;3.60;3.25;;;34.30;99.90;;;;;;5017257;28;20292;-55
2022/08/14 11:58:56;;;;;;;4.15;3.58;;;34.30;99.90;;;;;;5020836;28;20657;-54
2022/08/14 12:01:27;;;;;;;5.10;3.25;;;35.60;99.90;;;;;;5021175;28;20677;-54
2022/08/14 12:03:57;;;;;;;3.28;3.03;;;36.30;99.90;;;;;;5021268;28;20208;-54
2022/08/14 12:06:27;;;;;;;3.30;3.08;;;34.80;99.90;;;;;;5020811;28;20739;-54
2022/08/14 12:09:06;;;;;;;3.22;2.92;;;33.90;99.90;;;;;;5020616;28;20221;-54
2022/08/14 12:11:39;;;;;;;4.53;3.03;;;35.20;99.90;;;;;;5021138;28;20201;-54
2022/08/14 12:14:11;;;;;;;3.80;3.20;;;34.70;99.90;;;;;;5021859;28;20716;-53
2022/08/14 12:17:07;;;;;;;3.58;3.28;;;34.90;99.90;;;;;;5020526;28;20201;-54
2022/08/14 12:19:49;;;;;;;5.07;3.35;;;35.10;99.90;;;;;;5020628;28;20205;-54
2022/08/14 12:22:39;;;;;;;3.95;3.55;;;35.00;99.90;;;;;;5020751;28;20215;-54
2022/08/14 12:25:12;;;;;;;3.83;3.53;;;34.90;99.90;;;;;;5020957;28;20220;-54
2022/08/14 12:27:43;;;;;;;6.35;3.65;;;34.20;99.90;;;;;;5020352;28;20209;-56
2022/08/14 12:30:34;;;;;;;3.90;3.60;;;35.10;99.90;;;;;;5021494;28;20215;-53
2022/08/14 12:33:29;;;;;;;4.30;3.13;;;35.40;99.90;;;;;;5020963;28;20209;-54
2022/08/14 12:36:04;;;;;;;5.32;3.25;;;35.70;99.90;;;;;;5021160;28;20297;-53
2022/08/14 12:38:36;;;;;;;4.20;3.72;;;35.40;99.90;;;;;;5021027;28;20299;-55
2022/08/14 12:41:12;;;;;;;4.57;3.72;;;35.00;99.90;;;;;;5020383;28;20725;-54
2022/08/14 12:43:57;;;;;;;4.35;4.03;;;35.60;99.90;;;;;;5021053;28;20310;-54
2022/08/14 12:46:32;;;;;;;4.05;3.72;;;34.70;99.90;;;;;;5019996;28;20408;-53
2022/08/14 12:49:09;;;;;;;5.15;4.20;;;34.80;99.90;;;;;;5020334;28;20224;-53
2022/08/14 12:51:37;;;;;;;3.42;3.15;;;35.10;99.90;;;;;;5021884;28;20205;-54
2022/08/14 12:54:26;;;;;;;3.90;3.60;;;35.00;99.90;;;;;;5021111;28;20721;-56
2022/08/14 12:57:12;;;;;;;5.60;3.60;;;34.30;99.90;;;;;;5020700;28;20562;-55
2022/08/14 12:59:46;;;;;;;4.28;3.25;;;35.20;99.90;;;;;;5020918;28;20208;-55
2022/08/14 13:02:22;;;;;;;4.47;3.45;;;35.70;99.90;;;;;;5020009;28;20209;-55
2022/08/14 13:04:54;;;;;;;4.05;3.50;;;35.60;99.90;;;;;;5020747;28;20296;-55
2022/08/14 13:07:22;;;;;;;4.30;3.67;;;35.20;99.90;;;;;;5020559;28;20734;-55
2022/08/14 13:09:54;;;;;;;4.13;3.72;;;35.40;99.90;;;;;;5021441;28;20869;-54
2022/08/14 13:12:27;;;;;;;4.50;3.40;;;34.90;99.90;;;;;;5020783;28;20209;-54
2022/08/14 13:15:13;;;;;;;4.50;4.10;;;35.10;99.90;;;;;;5018820;28;20255;-54
2022/08/14 13:17:41;;;;;;;7.78;3.42;;;34.70;99.90;;;;;;5019580;28;20665;-54
2022/08/14 13:20:09;;;;;;;4.00;3.60;;;33.60;99.90;;;;;;5019867;28;20625;-54
2022/08/14 13:22:51;;;;;;;4.35;3.60;;;33.70;99.90;;;;;;5019674;28;20565;-54
2022/08/14 13:25:23;;;;;;;6.57;3.95;;;33.00;99.90;;;;;;5014242;28;20239;-55
2022/08/14 13:27:53;;;;;;;6.05;3.53;;;32.60;99.90;;;;;;5019626;28;20625;-54
2022/08/14 13:30:23;;;;;;;3.83;3.53;;;32.70;99.90;;;;;;5019696;28;20224;-56
2022/08/14 13:32:54;;;;;;;5.68;3.80;;;32.50;99.90;;;;;;5019096;28;20237;-55
2022/08/14 13:35:24;;;;;;;4.50;3.45;;;32.10;99.90;;;;;;5020446;28;20672;-55
2022/08/14 13:37:51;;;;;;;6.43;3.55;;;32.00;99.90;;;;;;5019657;28;20236;-54
2022/08/14 13:40:22;;;;;;;4.18;3.80;;;32.00;99.90;;;;;;5016388;28;20215;-54